Time;durP1;ratioP1;P1;durP2;ratioP2;P2;SDS_P1;SDS_P2;PMS_P1;PMS_P2;Temp;Humidity;BMP_temperature;BMP_pressure;BME280_temperature;BME280_humidity;BME280_pressure;Samples;Min_cycle;Max_cycle;Signal;HPM_P1;HPM_P2
2023/01/17 00:00:36;;;;;;;;;;;;;;;3.30;81.37;98769.73;107266;1262;75710;-85
2023/01/17 00:03:22;;;;;;;;;;;;;;;3.33;81.25;98775.36;107379;1257;125145;-84
2023/01/17 00:11:20;;;;;;;;;;;;;;;3.41;81.25;98763.05;107516;1257;61180;-84
2023/01/17 00:13:47;;;;;;;;;;;;;;;3.42;81.25;98762.38;107582;1258;75167;-83
2023/01/17 00:16:14;;;;;;;;;;;;;;;3.45;81.20;98758.10;107528;1260;124789;-83
2023/01/17 00:26:01;;;;;;;;;;;;;;;3.47;81.25;98758.15;107473;1257;72806;-84
2023/01/17 01:34:47;;;;;;;;;;;;;;;3.80;81.50;98632.86;107355;1262;124728;-84
2023/01/17 01:37:26;;;;;;;;;;;;;;;3.81;81.54;98631.52;107604;1260;65468;-84
2023/01/17 01:39:53;;;;;;;;;;;;;;;3.82;81.59;98626.67;107547;1260;124345;-84
2023/01/17 01:42:26;;;;;;;;;;;;;;;3.83;81.53;98626.33;107604;1256;60330;-85
2023/01/17 01:44:54;;;;;;;;;;;;;;;3.86;81.56;98619.96;107447;1256;61231;-84
2023/01/17 01:47:21;;;;;;;;;;;;;;;3.87;81.61;98615.12;107292;1257;74487;-84
2023/01/17 01:49:49;;;;;;;;;;;;;;;3.87;81.55;98607.68;107272;1257;65933;-86
2023/01/17 01:52:16;;;;;;;;;;;;;;;3.88;81.59;98603.35;107280;1260;125202;-86
2023/01/17 01:54:49;;;;;;;;;;;;;;;3.89;81.47;98592.95;107197;1256;61306;-86
2023/01/17 01:57:27;;;;;;;;;;;;;;;3.92;81.74;98587.63;107315;1260;124602;-86
2023/01/17 02:00:16;;;;;;;;;;;;;;;3.95;81.69;98582.46;107288;1257;76168;-86
2023/01/17 02:02:49;;;;;;;;;;;;;;;3.97;81.74;98572.77;106735;1266;66333;-84
2023/01/17 02:05:22;;;;;;;;;;;;;;;3.98;81.64;98562.91;106756;1264;124243;-86
2023/01/17 02:08:06;;;;;;;;;;;;;;;3.98;81.66;98554.42;106898;1267;61150;-85
2023/01/17 02:10:36;;;;;;;;;;;;;;;3.98;81.54;98540.69;106751;1270;124454;-85
2023/01/17 02:13:03;;;;;;;;;;;;;;;3.98;81.56;98535.83;107064;1263;72885;-85
2023/01/17 02:15:49;;;;;;;;;;;;;;;3.99;81.59;98527.52;106695;1271;125099;-84
2023/01/17 02:18:36;;;;;;;;;;;;;;;3.99;81.48;98523.19;106929;1265;72431;-85
2023/01/17 02:21:21;;;;;;;;;;;;;;;3.99;81.54;98525.09;106561;1268;124626;-85
2023/01/17 02:23:53;;;;;;;;;;;;;;;3.96;81.55;98519.33;106557;1269;61306;-85
2023/01/17 02:26:46;;;;;;;;;;;;;;;3.96;81.60;98516.02;106662;1269;73250;-85
2023/01/17 02:29:31;;;;;;;;;;;;;;;3.95;81.58;98509.25;106472;1270;124004;-85
2023/01/17 02:32:32;;;;;;;;;;;;;;;3.91;81.47;98504.31;106814;1269;71488;-85
2023/01/17 02:35:01;;;;;;;;;;;;;;;3.85;81.58;98504.94;106742;1264;123936;-85
2023/01/17 02:37:52;;;;;;;;;;;;;;;3.82;81.54;98509.05;106971;1264;61260;-86
2023/01/17 02:40:22;;;;;;;;;;;;;;;3.79;81.73;98513.50;107022;1260;124253;-85
2023/01/17 02:42:59;;;;;;;;;;;;;;;3.76;81.80;98513.64;107103;1257;65840;-85
2023/01/17 02:45:27;;;;;;;;;;;;;;;3.74;81.86;98512.05;106952;1257;125115;-84
2023/01/17 02:47:56;;;;;;;;;;;;;;;3.72;81.92;98510.96;106980;1258;61286;-84
2023/01/17 02:50:24;;;;;;;;;;;;;;;3.69;81.89;98503.80;107254;1257;61149;-84
2023/01/17 02:52:54;;;;;;;;;;;;;;;3.67;82.01;98496.14;107328;1257;124510;-83
2023/01/17 02:55:25;;;;;;;;;;;;;;;3.64;82.16;98488.64;107183;1260;66035;-84
2023/01/17 02:57:58;;;;;;;;;;;;;;;3.60;82.20;98482.84;106954;1257;124844;-84
2023/01/17 03:00:42;;;;;;;;;;;;;;;3.56;82.18;98479.82;107297;1257;61467;-85
2023/01/17 03:03:18;;;;;;;;;;;;;;;3.54;82.54;98471.13;107152;1257;125372;-85
2023/01/17 03:05:53;;;;;;;;;;;;;;;3.52;82.46;98469.36;107319;1264;74733;-84
2023/01/17 03:08:20;;;;;;;;;;;;;;;3.52;82.63;98469.36;107475;1262;67099;-84
2023/01/17 03:10:47;;;;;;;;;;;;;;;3.50;82.62;98466.05;107654;1257;124305;-84
2023/01/17 03:13:14;;;;;;;;;;;;;;;3.49;82.91;98455.80;107825;1258;61241;-83
2023/01/17 03:15:41;;;;;;;;;;;;;;;3.49;82.95;98456.66;107786;1257;124756;-82
2023/01/17 03:18:11;;;;;;;;;;;;;;;3.49;82.96;98453.70;107750;1260;75040;-83
2023/01/17 03:20:38;;;;;;;;;;;;;;;3.49;83.16;98453.87;107806;1257;67440;-82
2023/01/17 03:23:06;;;;;;;;;;;;;;;3.48;83.19;98444.85;107675;1257;124801;-84
2023/01/17 03:25:33;;;;;;;;;;;;;;;3.45;83.23;98440.98;107758;1257;59693;-84
2023/01/17 03:28:00;;;;;;;;;;;;;;;3.43;83.29;98431.94;107661;1256;124506;-83
2023/01/17 03:30:27;;;;;;;;;;;;;;;3.45;83.54;98431.27;107424;1263;74874;-83
2023/01/17 03:32:54;;;;;;;;;;;;;;;3.47;83.54;98426.46;107427;1257;65843;-83
2023/01/17 03:35:21;;;;;;;;;;;;;;;3.47;83.41;98423.14;107542;1260;73374;-83
2023/01/17 03:37:55;;;;;;;;;;;;;;;3.46;83.40;98421.06;107526;1257;61227;-83
2023/01/17 03:40:22;;;;;;;;;;;;;;;3.44;83.46;98420.52;107479;1256;124404;-82
2023/01/17 03:42:49;;;;;;;;;;;;;;;3.45;83.64;98419.67;107172;1257;73369;-82
2023/01/17 03:45:16;;;;;;;;;;;;;;;3.48;83.80;98413.63;107491;1256;124692;-82
2023/01/17 03:47:43;;;;;;;;;;;;;;;3.50;83.69;98406.40;107954;1258;71336;-82
2023/01/17 03:50:10;;;;;;;;;;;;;;;3.52;83.78;98404.85;108143;1256;61108;-84
2023/01/17 03:52:37;;;;;;;;;;;;;;;3.51;83.69;98399.65;107821;1256;124584;-82
2023/01/17 03:55:05;;;;;;;;;;;;;;;3.49;83.86;98401.18;108064;1257;75277;-82
2023/01/17 03:57:32;;;;;;;;;;;;;;;3.49;83.84;98396.66;108853;1258;125040;-82
2023/01/17 03:59:59;;;;;;;;;;;;;;;3.49;83.86;98395.79;109004;1257;73252;-82
2023/01/17 04:02:26;;;;;;;;;;;;;;;3.49;83.86;98394.56;108907;1257;59315;-82
2023/01/17 04:04:53;;;;;;;;;;;;;;;3.48;83.85;98390.76;107520;1256;124517;-83
2023/01/17 04:07:21;;;;;;;;;;;;;;;3.48;84.05;98384.16;107405;1257;73287;-83
2023/01/17 04:09:48;;;;;;;;;;;;;;;3.49;84.01;98381.74;107451;1257;124382;-83
2023/01/17 04:12:21;;;;;;;;;;;;;;;3.48;84.00;98377.92;107541;1260;71071;-83
2023/01/17 04:14:48;;;;;;;;;;;;;;;3.50;84.13;98367.90;107624;1257;62875;-83
2023/01/17 04:17:16;;;;;;;;;;;;;;;3.50;84.09;98363.21;107530;1257;124165;-83
2023/01/17 04:19:43;;;;;;;;;;;;;;;3.50;84.16;98355.42;107780;1258;76088;-85
2023/01/17 04:22:14;;;;;;;;;;;;;;;3.51;84.19;98353.52;107175;1256;124524;-85
2023/01/17 04:24:53;;;;;;;;;;;;;;;3.53;84.37;98352.67;107598;1256;71937;-83
2023/01/17 04:27:22;;;;;;;;;;;;;;;3.53;84.15;98351.30;107315;1258;124908;-83
2023/01/17 04:29:51;;;;;;;;;;;;;;;3.53;84.27;98345.73;107148;1257;61258;-83
2023/01/17 04:32:18;;;;;;;;;;;;;;;3.54;84.18;98344.38;107242;1257;75178;-83
2023/01/17 04:34:45;;;;;;;;;;;;;;;3.53;84.30;98344.69;107385;1256;124817;-83
2023/01/17 04:37:12;;;;;;;;;;;;;;;3.51;84.21;98343.98;107337;1261;72703;-85
2023/01/17 04:39:39;;;;;;;;;;;;;;;3.50;84.38;98341.02;107300;1256;124509;-85
2023/01/17 04:42:06;;;;;;;;;;;;;;;3.51;84.39;98338.97;107355;1257;61286;-85
2023/01/17 04:44:39;;;;;;;;;;;;;;;3.50;84.36;98338.25;107459;1256;73394;-85
2023/01/17 04:47:06;;;;;;;;;;;;;;;3.53;84.38;98338.63;107208;1256;124856;-83
2023/01/17 04:49:41;;;;;;;;;;;;;;;3.55;84.64;98339.35;107440;1257;73996;-84
2023/01/17 04:52:08;;;;;;;;;;;;;;;3.55;84.49;98331.04;107098;1260;124733;-84
2023/01/17 04:54:35;;;;;;;;;;;;;;;3.54;84.43;98322.33;107252;1257;61247;-85
2023/01/17 04:57:08;;;;;;;;;;;;;;;3.53;84.30;98325.28;107090;1257;124584;-84
2023/01/17 04:59:35;;;;;;;;;;;;;;;3.55;84.55;98323.74;107084;1256;65820;-85
2023/01/17 05:02:15;;;;;;;;;;;;;;;3.55;84.45;98329.30;107052;1256;73201;-86
2023/01/17 05:04:48;;;;;;;;;;;;;;;3.56;84.41;98326.88;107051;1257;125026;-85
2023/01/17 05:07:15;;;;;;;;;;;;;;;3.55;84.49;98329.48;107411;1256;63064;-85
2023/01/17 05:09:51;;;;;;;;;;;;;;;3.57;84.59;98327.08;106998;1257;124645;-84
2023/01/17 05:12:18;;;;;;;;;;;;;;;3.59;84.51;98323.45;107142;1260;66881;-84
2023/01/17 05:14:45;;;;;;;;;;;;;;;3.61;84.70;98322.62;107173;1262;71474;-85
2023/01/17 05:17:20;;;;;;;;;;;;;;;3.62;84.69;98320.55;107084;1257;125500;-85
2023/01/17 05:19:59;;;;;;;;;;;;;;;3.64;84.65;98318.67;107066;1256;60166;-85
2023/01/17 05:22:48;;;;;;;;;;;;;;;3.65;84.66;98313.30;106766;1257;124633;-86
2023/01/17 05:25:24;;;;;;;;;;;;;;;3.66;84.66;98305.34;107305;1258;67586;-84
2023/01/17 05:27:51;;;;;;;;;;;;;;;3.68;84.66;98297.04;107408;1257;124986;-83
2023/01/17 05:30:18;;;;;;;;;;;;;;;3.69;84.65;98294.45;107177;1260;61223;-83
2023/01/17 05:32:49;;;;;;;;;;;;;;;3.68;84.58;98291.84;107070;1257;61222;-85
2023/01/17 05:35:21;;;;;;;;;;;;;;;3.69;84.71;98297.73;107115;1257;124889;-86
2023/01/17 05:37:55;;;;;;;;;;;;;;;3.69;84.55;98298.09;107130;1257;65875;-84
2023/01/17 05:40:23;;;;;;;;;;;;;;;3.70;84.69;98297.25;107223;1262;124547;-84
2023/01/17 05:42:50;;;;;;;;;;;;;;;3.69;84.64;98295.32;107264;1260;61135;-83
2023/01/17 05:45:18;;;;;;;;;;;;;;;3.70;84.64;98291.86;107209;1258;125057;-84
2023/01/17 05:47:47;;;;;;;;;;;;;;;3.74;84.64;98296.77;107275;1259;75713;-83
2023/01/17 05:50:21;;;;;;;;;;;;;;;3.75;84.67;98295.75;107056;1257;67223;-84
2023/01/17 05:52:49;;;;;;;;;;;;;;;3.75;84.58;98298.17;107013;1257;124437;-84
2023/01/17 05:55:18;;;;;;;;;;;;;;;3.74;84.54;98301.64;107197;1258;61353;-84
2023/01/17 05:57:45;;;;;;;;;;;;;;;3.75;84.56;98300.60;107286;1258;124614;-84
2023/01/17 06:00:14;;;;;;;;;;;;;;;3.76;84.55;98301.29;107422;1259;73450;-84
2023/01/17 06:02:41;;;;;;;;;;;;;;;3.77;84.70;98300.95;107329;1259;65777;-84
2023/01/17 06:05:16;;;;;;;;;;;;;;;3.76;84.52;98297.50;107704;1258;124898;-84
2023/01/17 06:07:44;;;;;;;;;;;;;;;3.74;84.34;98297.81;107185;1257;61424;-84
2023/01/17 06:10:18;;;;;;;;;;;;;;;3.73;84.45;98296.42;107372;1257;124435;-84
2023/01/17 06:13:04;;;;;;;;;;;;;;;3.74;84.51;98298.16;107204;1257;74701;-84
2023/01/17 06:15:32;;;;;;;;;;;;;;;3.73;84.60;98298.84;107365;1256;124759;-84
2023/01/17 06:18:02;;;;;;;;;;;;;;;3.74;84.50;98295.21;107221;1256;73271;-83
2023/01/17 06:20:36;;;;;;;;;;;;;;;3.76;84.55;98290.55;107201;1256;61253;-85
2023/01/17 06:23:06;;;;;;;;;;;;;;;3.77;84.49;98294.02;106974;1259;124840;-82
2023/01/17 06:25:36;;;;;;;;;;;;;;;3.78;84.53;98298.91;107257;1256;74655;-84
2023/01/17 06:28:05;;;;;;;;;;;;;;;3.79;84.50;98293.53;107210;1257;124563;-84
2023/01/17 06:30:32;;;;;;;;;;;;;;;3.80;84.43;98292.34;106995;1256;71410;-82
2023/01/17 06:33:00;;;;;;;;;;;;;;;3.80;84.42;98286.27;107046;1256;124670;-85
2023/01/17 06:35:30;;;;;;;;;;;;;;;3.80;84.37;98289.56;107326;1257;59854;-84
2023/01/17 06:37:59;;;;;;;;;;;;;;;3.79;84.32;98295.27;107373;1256;72481;-83
2023/01/17 06:40:28;;;;;;;;;;;;;;;3.81;84.45;98300.34;107331;1259;125665;-86
2023/01/17 06:43:00;;;;;;;;;;;;;;;3.85;84.30;98301.25;107546;1258;70731;-84
2023/01/17 06:45:33;;;;;;;;;;;;;;;3.84;84.25;98298.47;107228;1257;125167;-84
2023/01/17 06:48:02;;;;;;;;;;;;;;;3.84;84.39;98299.67;107199;1256;61187;-85
2023/01/17 06:50:31;;;;;;;;;;;;;;;3.83;84.21;98300.36;107272;1256;72888;-84
2023/01/17 06:52:59;;;;;;;;;;;;;;;3.83;84.26;98295.86;107280;1256;123520;-84
2023/01/17 06:55:27;;;;;;;;;;;;;;;3.84;84.28;98297.60;107255;1256;72687;-88
2023/01/17 06:57:55;;;;;;;;;;;;;;;3.86;84.34;98295.20;107042;1260;124449;-84
2023/01/17 07:00:27;;;;;;;;;;;;;;;3.89;84.41;98291.23;107635;1259;59582;-84
2023/01/17 07:02:54;;;;;;;;;;;;;;;3.92;84.33;98286.75;107459;1256;73597;-86
2023/01/17 07:05:21;;;;;;;;;;;;;;;3.93;84.24;98293.36;107193;1258;66536;-90
2023/01/17 07:07:50;;;;;;;;;;;;;;;3.98;84.49;98300.36;107220;1257;73178;-84
2023/01/17 07:10:17;;;;;;;;;;;;;;;4.01;84.44;98302.13;107407;1256;124411;-84
2023/01/17 07:12:45;;;;;;;;;;;;;;;4.04;84.36;98299.73;107234;1257;61153;-84
2023/01/17 07:15:13;;;;;;;;;;;;;;;4.06;84.33;98299.77;107151;1256;124547;-84
2023/01/17 07:17:43;;;;;;;;;;;;;;;4.08;84.39;98297.19;107222;1256;65748;-84
2023/01/17 07:20:12;;;;;;;;;;;;;;;4.09;84.18;98299.61;107257;1257;71552;-84
2023/01/17 07:22:43;;;;;;;;;;;;;;;4.10;84.25;98294.27;107270;1257;124758;-84
2023/01/17 07:25:10;;;;;;;;;;;;;;;4.14;84.27;98279.89;107428;1258;61481;-84
2023/01/17 07:27:38;;;;;;;;;;;;;;;4.17;84.24;98282.70;107111;1256;125043;-84
2023/01/17 07:30:05;;;;;;;;;;;;;;;4.18;84.12;98280.11;107245;1257;65687;-84
2023/01/17 07:32:32;;;;;;;;;;;;;;;4.19;84.27;98286.37;106992;1257;71085;-84
2023/01/17 07:34:59;;;;;;;;;;;;;;;4.20;84.14;98285.67;106985;1257;124830;-84
2023/01/17 07:37:33;;;;;;;;;;;;;;;4.21;84.19;98282.56;106828;1257;61282;-84
2023/01/17 07:40:04;;;;;;;;;;;;;;;4.22;84.22;98278.60;107095;1256;124884;-83
2023/01/17 07:42:31;;;;;;;;;;;;;;;4.21;84.17;98282.56;107048;1260;67892;-84
2023/01/17 07:44:59;;;;;;;;;;;;;;;4.26;84.26;98275.68;106903;1256;124745;-87
2023/01/17 07:47:38;;;;;;;;;;;;;;;4.27;84.21;98269.78;107040;1260;61382;-86
2023/01/17 07:50:12;;;;;;;;;;;;;;;4.30;84.15;98269.82;107178;1257;61282;-86
2023/01/17 07:52:49;;;;;;;;;;;;;;;4.34;84.13;98263.08;107120;1256;124765;-86
2023/01/17 07:55:16;;;;;;;;;;;;;;;4.36;84.20;98254.43;107311;1256;66010;-86
2023/01/17 07:57:51;;;;;;;;;;;;;;;4.39;84.11;98251.67;106840;1259;124992;-85
2023/01/17 08:00:37;;;;;;;;;;;;;;;4.43;84.04;98253.62;107097;1263;59895;-87
2023/01/17 08:03:05;;;;;;;;;;;;;;;4.45;83.99;98256.06;107242;1256;124748;-86
2023/01/17 08:05:33;;;;;;;;;;;;;;;4.50;84.09;98252.80;107336;1257;74538;-86
2023/01/17 08:08:00;;;;;;;;;;;;;;;4.55;84.05;98256.68;107388;1256;66234;-87
2023/01/17 08:10:33;;;;;;;;;;;;;;;4.60;84.06;98258.47;107178;1256;124832;-87
2023/01/17 08:13:00;;;;;;;;;;;;;;;4.66;83.98;98260.60;107141;1256;61247;-87
2023/01/17 08:15:27;;;;;;;;;;;;;;;4.72;84.01;98259.77;107204;1256;124754;-87
2023/01/17 08:18:00;;;;;;;;;;;;;;;4.76;83.96;98257.55;107221;1257;74676;-87
2023/01/17 08:20:27;;;;;;;;;;;;;;;4.77;83.73;98254.95;107548;1256;66525;-87
2023/01/17 08:22:57;;;;;;;;;;;;;;;4.74;83.65;98259.80;107412;1256;124573;-87
2023/01/17 08:25:36;;;;;;;;;;;;;;;4.76;83.71;98266.41;107312;1256;60581;-85
2023/01/17 08:28:10;;;;;;;;;;;;;;;4.77;83.69;98267.64;107262;1256;124717;-86
2023/01/17 08:31:09;;;;;;;;;;;;;;;4.82;83.68;98271.34;106704;1260;665743;-92
2023/01/17 08:33:40;;;;;;;;;;;;;;;4.85;83.60;98277.96;107237;1256;124177;-87
2023/01/17 08:36:07;;;;;;;;;;;;;;;4.91;83.65;98276.08;107259;1256;72474;-88
2023/01/17 08:38:51;;;;;;;;;;;;;;;4.94;83.66;98274.36;107246;1256;61244;-86
2023/01/17 08:41:20;;;;;;;;;;;;;;;4.99;83.61;98274.77;107048;1256;124769;-89
2023/01/17 08:43:49;;;;;;;;;;;;;;;5.02;83.58;98266.95;106955;1256;75668;-88
2023/01/17 08:46:35;;;;;;;;;;;;;;;5.09;83.63;98263.17;107233;1259;125755;-87
2023/01/17 08:49:03;;;;;;;;;;;;;;;5.15;83.45;98270.00;107722;1256;73752;-88
2023/01/17 08:51:31;;;;;;;;;;;;;;;5.20;83.47;98272.81;107194;1256;124694;-88
2023/01/17 08:54:04;;;;;;;;;;;;;;;5.23;83.30;98272.16;107209;1256;61416;-88
2023/01/17 08:56:31;;;;;;;;;;;;;;;5.25;83.18;98274.77;107175;1256;74689;-87
2023/01/17 08:58:58;;;;;;;;;;;;;;;5.26;83.15;98273.55;106983;1261;123914;-88
2023/01/17 09:01:39;;;;;;;;;;;;;;;5.29;83.10;98273.41;107252;1256;73179;-88
2023/01/17 09:04:07;;;;;;;;;;;;;;;5.34;83.08;98272.39;107202;1256;123753;-86
2023/01/17 09:06:40;;;;;;;;;;;;;;;5.38;83.09;98271.19;107405;1256;60111;-87
2023/01/17 09:09:27;;;;;;;;;;;;;;;5.40;82.87;98275.38;107132;1258;123969;-91
2023/01/17 09:11:56;;;;;;;;;;;;;;;5.40;82.86;98276.77;107047;1256;66246;-89
2023/01/17 09:26:30;;;;;;;;;;;;;;;5.50;82.65;98281.36;107156;1256;76060;-90
2023/01/17 09:29:21;;;;;;;;;;;;;;;5.53;82.62;98278.94;107226;1256;124606;-88
2023/01/17 09:31:51;;;;;;;;;;;;;;;5.59;82.57;98280.70;106991;1256;73766;-86
2023/01/17 09:38:04;;;;;;;;;;;;;;;5.68;82.36;98274.31;107312;1255;61298;-90
2023/01/17 09:51:02;;;;;;;;;;;;;;;5.81;81.93;98278.90;107393;1256;61180;-90
2023/01/17 09:53:53;;;;;;;;;;;;;;;5.81;81.74;98279.77;107170;1257;61119;-91
2023/01/17 10:03:04;;;;;;;;;;;;;;;5.79;81.37;98285.31;107121;1256;74904;-88
2023/01/17 10:09:06;;;;;;;;;;;;;;;5.76;81.32;98281.13;107061;1256;61211;-87
2023/01/17 10:11:55;;;;;;;;;;;;;;;5.75;81.38;98273.81;107853;1258;76891;-87
2023/01/17 10:14:35;;;;;;;;;;;;;;;5.78;81.33;98272.09;107399;1256;67032;-88
2023/01/17 10:17:25;;;;;;;;;;;;;;;5.80;81.25;98274.88;107441;1256;123846;-88
2023/01/17 10:20:04;;;;;;;;;;;;;;;5.86;81.38;98271.94;107841;1259;61443;-86
2023/01/17 10:22:45;;;;;;;;;;;;;;;5.89;81.15;98277.54;107157;1256;122608;-87
2023/01/17 10:25:22;;;;;;;;;;;;;;;5.91;81.13;98279.11;107402;1256;74755;-86
2023/01/17 10:28:20;;;;;;;;;;;;;;;5.91;81.02;98277.02;107204;1256;125043;-91
2023/01/17 10:31:10;;;;;;;;;;;;;;;5.93;81.01;98277.71;107412;1259;74684;-88
2023/01/17 10:34:26;;;;;;;;;;;;;;;;;;;;;
2023/01/17 10:41:13;;;;;;;;;;;;;;;6.04;80.62;98282.33;107113;1257;124767;-89
2023/01/17 10:50:32;;;;;;;;;;;;;;;6.19;80.53;98289.86;107497;1256;61239;-90
2023/01/17 10:56:28;;;;;;;;;;;;;;;6.20;80.21;98288.83;107410;1256;73435;-91
2023/01/17 11:02:24;;;;;;;;;;;;;;;6.29;80.08;98290.75;107469;1256;73140;-94
2023/01/17 11:08:28;;;;;;;;;;;;;;;6.37;79.94;98280.48;108019;1256;61395;-93
2023/01/17 11:14:23;;;;;;;;;;;;;;;6.42;79.58;98272.66;107331;1256;67019;-88
2023/01/17 11:17:11;;;;;;;;;;;;;;;6.40;79.33;98276.32;107122;1256;123653;-92
2023/01/17 11:19:51;;;;;;;;;;;;;;;6.39;79.39;98274.73;106939;1257;61397;-88
2023/01/17 11:22:19;;;;;;;;;;;;;;;6.45;79.48;98274.41;106957;1261;124731;-88
2023/01/17 11:24:52;;;;;;;;;;;;;;;6.58;79.66;98273.90;107243;1257;76871;-89
2023/01/17 11:27:23;;;;;;;;;;;;;;;6.89;80.02;98262.59;107312;1256;124391;-89
2023/01/17 11:30:02;;;;;;;;;;;;;;;7.25;79.97;98253.14;107207;1256;72883;-89
2023/01/17 11:32:33;;;;;;;;;;;;;;;7.50;79.38;98255.17;107491;1257;61119;-89
2023/01/17 11:35:09;;;;;;;;;;;;;;;7.56;78.79;98257.77;107241;1256;124574;-89
2023/01/17 11:37:37;;;;;;;;;;;;;;;7.56;78.49;98255.68;107712;1256;74569;-89
2023/01/17 11:40:09;;;;;;;;;;;;;;;7.51;78.03;98261.98;107178;1257;125084;-89
2023/01/17 11:43:05;;;;;;;;;;;;;;;7.43;77.86;98258.33;107305;1260;72417;-89
2023/01/17 11:45:35;;;;;;;;;;;;;;;7.34;77.78;98259.41;106848;1264;127843;-90
2023/01/17 11:48:15;;;;;;;;;;;;;;;7.30;77.75;98255.73;106706;1264;60919;-89
2023/01/17 11:51:05;;;;;;;;;;;;;;;7.26;77.51;98253.48;106790;1264;74565;-89
2023/01/17 11:53:47;;;;;;;;;;;;;;;7.25;77.70;98252.61;106870;1263;124600;-89
2023/01/17 11:56:45;;;;;;;;;;;;;;;7.24;77.58;98254.70;106907;1264;71616;-89
2023/01/17 11:59:57;;;;;;;;;;;;;;;7.21;77.45;98251.58;106774;1264;123817;-90
2023/01/17 12:02:30;;;;;;;;;;;;;;;7.13;77.29;98256.30;106677;1263;64215;-90
2023/01/17 12:05:17;;;;;;;;;;;;;;;7.06;77.25;98256.82;106608;1267;124224;-89
2023/01/17 12:14:47;;;;;;;;;;;;;;;6.86;77.22;98261.71;105763;1279;61087;-89
2023/01/17 12:17:21;;;;;;;;;;;;;;;6.78;77.21;98261.04;106022;1270;123685;-90
2023/01/17 12:20:22;;;;;;;;;;;;;;;6.71;77.14;98264.51;106362;1271;74504;-88
2023/01/17 12:23:12;;;;;;;;;;;;;;;6.64;77.15;98261.54;106636;1264;124727;-88
2023/01/17 12:25:45;;;;;;;;;;;;;;;6.63;77.30;98266.26;106774;1264;71449;-88
2023/01/17 12:28:19;;;;;;;;;;;;;;;6.63;77.38;98263.80;106674;1269;124499;-89
2023/01/17 12:31:24;;;;;;;;;;;;;;;6.62;77.30;98265.38;106745;1264;61360;-89
2023/01/17 12:33:55;;;;;;;;;;;;;;;6.60;77.24;98271.30;106607;1264;124748;-88
2023/01/17 12:36:29;;;;;;;;;;;;;;;6.60;77.25;98274.95;106799;1264;68533;-88
2023/01/17 12:39:21;;;;;;;;;;;;;;;6.55;77.09;98275.98;107024;1264;71527;-88
2023/01/17 12:42:09;;;;;;;;;;;;;;;6.49;77.07;98275.11;106922;1265;61384;-88
2023/01/17 12:44:52;;;;;;;;;;;;;;;6.46;77.08;98275.45;106914;1269;61322;-87
2023/01/17 12:47:36;;;;;;;;;;;;;;;6.43;77.16;98282.77;107257;1258;124501;-87
2023/01/17 12:50:22;;;;;;;;;;;;;;;6.44;77.21;98282.42;107187;1257;64894;-91
2023/01/17 12:52:58;;;;;;;;;;;;;;;6.46;77.33;98285.04;107105;1257;123879;-90
2023/01/17 12:58:41;;;;;;;;;;;;;;;6.61;77.48;98293.77;107099;1259;123862;-87
2023/01/17 13:01:34;;;;;;;;;;;;;;;6.67;77.46;98293.60;107067;1258;72989;-86
2023/01/17 13:04:26;;;;;;;;;;;;;;;6.70;77.31;98296.05;107033;1257;123858;-88
2023/01/17 13:09:52;;;;;;;;;;;;;;;6.77;77.17;98301.11;107075;1261;123763;-90
2023/01/17 13:12:21;;;;;;;;;;;;;;;6.77;77.02;98307.04;107100;1257;60174;-86
2023/01/17 13:14:50;;;;;;;;;;;;;;;6.74;76.98;98309.83;107393;1257;74741;-89
2023/01/17 13:17:26;;;;;;;;;;;;;;;6.70;76.83;98313.48;107115;1260;123840;-89
2023/01/17 13:19:56;;;;;;;;;;;;;;;6.67;76.94;98316.27;107133;1259;71744;-90
2023/01/17 13:22:44;;;;;;;;;;;;;;;6.69;77.04;98314.70;107172;1256;124293;-89
2023/01/17 13:25:14;;;;;;;;;;;;;;;6.71;76.96;98326.73;107202;1256;61266;-89
2023/01/17 13:28:00;;;;;;;;;;;;;;;6.73;76.87;98337.36;107176;1257;124690;-90
2023/01/17 13:30:48;;;;;;;;;;;;;;;6.73;76.83;98343.63;107274;1256;65647;-89
2023/01/17 13:33:32;;;;;;;;;;;;;;;6.69;76.72;98344.33;107112;1256;72584;-88
2023/01/17 13:36:09;;;;;;;;;;;;;;;6.67;76.80;98353.73;107106;1256;59974;-89
2023/01/17 13:38:43;;;;;;;;;;;;;;;6.62;76.72;98357.73;107313;1256;61282;-90
2023/01/17 13:41:10;;;;;;;;;;;;;;;6.58;76.71;98364.17;107190;1256;124896;-88
2023/01/17 13:44:20;;;;;;;;;;;;;;;6.55;76.57;98363.80;107248;1257;65607;-86
2023/01/17 13:46:51;;;;;;;;;;;;;;;6.49;76.55;98362.92;107347;1256;124747;-86
2023/01/17 13:49:19;;;;;;;;;;;;;;;6.41;76.67;98366.56;107336;1256;62147;-85
2023/01/17 13:52:09;;;;;;;;;;;;;;;6.40;76.58;98371.61;107082;1260;123628;-85
2023/01/17 13:54:43;;;;;;;;;;;;;;;6.35;76.52;98371.06;107210;1256;74702;-85
2023/01/17 13:57:28;;;;;;;;;;;;;;;6.31;76.59;98374.19;107304;1256;65532;-85
2023/01/17 14:03:38;;;;;;;;;;;;;;;6.20;76.49;98380.41;107349;1259;60431;-84
2023/01/17 14:06:34;;;;;;;;;;;;;;;6.14;76.43;98376.38;107490;1259;61193;-86
2023/01/17 14:09:23;;;;;;;;;;;;;;;6.09;76.50;98379.14;106939;1263;73428;-85
2023/01/17 14:11:59;;;;;;;;;;;;;;;6.04;76.52;98386.08;106921;1259;124411;-84
2023/01/17 14:14:55;;;;;;;;;;;;;;;5.98;76.65;98390.75;106846;1264;72651;-86
2023/01/17 14:17:24;;;;;;;;;;;;;;;5.97;76.70;98397.36;106626;1259;123832;-85
2023/01/17 14:19:53;;;;;;;;;;;;;;;5.94;76.65;98396.27;106772;1261;61274;-85
2023/01/17 14:22:21;;;;;;;;;;;;;;;5.92;76.83;98397.99;106745;1260;123791;-88
2023/01/17 14:25:02;;;;;;;;;;;;;;;5.88;76.86;98398.14;106749;1262;66899;-85
2023/01/17 14:27:33;;;;;;;;;;;;;;;5.84;76.84;98401.95;106652;1264;123891;-87
2023/01/17 14:30:17;;;;;;;;;;;;;;;5.75;76.69;98407.11;106740;1265;59945;-86
2023/01/17 14:33:09;;;;;;;;;;;;;;;5.63;76.58;98407.39;106888;1259;61244;-86
2023/01/17 14:35:57;;;;;;;;;;;;;;;5.51;76.56;98417.03;107092;1256;123786;-87
2023/01/17 14:38:36;;;;;;;;;;;;;;;5.37;76.59;98427.02;107341;1256;65501;-86
2023/01/17 14:41:25;;;;;;;;;;;;;;;5.21;76.64;98422.70;107540;1256;124356;-85
2023/01/17 14:44:00;;;;;;;;;;;;;;;5.05;76.69;98430.04;107516;1256;59614;-84
2023/01/17 14:46:38;;;;;;;;;;;;;;;4.92;76.82;98432.16;107350;1256;124463;-84
2023/01/17 14:49:28;;;;;;;;;;;;;;;4.84;77.05;98437.11;108860;1257;74661;-85
2023/01/17 14:52:27;;;;;;;;;;;;;;;4.81;77.40;98444.71;107643;1257;124754;-84
2023/01/17 14:54:58;;;;;;;;;;;;;;;4.79;77.54;98442.98;108024;1256;72055;-85
2023/01/17 14:57:47;;;;;;;;;;;;;;;4.83;77.63;98441.97;107688;1257;61286;-87
2023/01/17 15:00:40;;;;;;;;;;;;;;;4.88;77.83;98445.32;107379;1256;59682;-89
2023/01/17 15:03:17;;;;;;;;;;;;;;;4.93;77.90;98452.31;107520;1256;75123;-86
2023/01/17 15:05:49;;;;;;;;;;;;;;;4.94;77.99;98457.04;107641;1256;124335;-87
2023/01/17 15:08:32;;;;;;;;;;;;;;;5.00;78.23;98462.15;107420;1256;73655;-87
2023/01/17 15:11:04;;;;;;;;;;;;;;;5.05;78.42;98466.18;107048;1260;124594;-87
2023/01/17 15:13:41;;;;;;;;;;;;;;;5.08;78.49;98470.91;106950;1257;61170;-87
2023/01/17 15:16:37;;;;;;;;;;;;;;;5.10;78.53;98478.23;106716;1262;125036;-90
2023/01/17 15:19:10;;;;;;;;;;;;;;;5.08;78.70;98471.25;107627;1257;65596;-87
2023/01/17 15:21:41;;;;;;;;;;;;;;;5.08;78.73;98482.73;108186;1257;124918;-87
2023/01/17 15:24:16;;;;;;;;;;;;;;;5.05;78.70;98491.39;108986;1256;59006;-87
2023/01/17 15:26:46;;;;;;;;;;;;;;;5.03;78.70;98491.38;107208;1256;61064;-92
2023/01/17 15:29:42;;;;;;;;;;;;;;;5.02;78.74;98500.73;107152;1256;124781;-90
2023/01/17 15:32:29;;;;;;;;;;;;;;;4.97;78.80;98505.73;107281;1256;65663;-93
2023/01/17 15:35:01;;;;;;;;;;;;;;;4.97;78.91;98507.12;107220;1256;124327;-88
2023/01/17 15:37:31;;;;;;;;;;;;;;;4.97;78.91;98512.33;108166;1256;59254;-88
2023/01/17 15:40:07;;;;;;;;;;;;;;;4.94;78.90;98515.42;107288;1258;122839;-91
2023/01/17 15:42:38;;;;;;;;;;;;;;;4.94;79.10;98516.99;107266;1256;73563;-91
2023/01/17 15:45:08;;;;;;;;;;;;;;;4.93;79.21;98514.20;107244;1256;67665;-93
2023/01/17 15:47:38;;;;;;;;;;;;;;;4.91;79.26;98519.73;107119;1256;123828;-92
2023/01/17 15:50:28;;;;;;;;;;;;;;;4.88;79.49;98512.40;107240;1256;61122;-92
2023/01/17 15:52:57;;;;;;;;;;;;;;;4.84;79.18;98513.74;107185;1261;123644;-92
2023/01/17 15:55:33;;;;;;;;;;;;;;;4.78;79.29;98520.96;107501;1256;73608;-91
2023/01/17 15:58:03;;;;;;;;;;;;;;;4.76;79.36;98533.29;107194;1256;123836;-92